Isle of Barra, United Kingdom
Current Conditions -  °F | °C
As of 1:20 PM on Thursday 18 Dec 2014 (Local Time) from EGPL Reporting Station
Rain Showers Rain Showers  
Wind Chill: 35°   Ceiling: Unl
Heat Index: 45°   Visibility: 6mi
Dew Point: 37°   Wind: 25mph
Humidity: 76%   Direction: 260°W
Pressure: 29.29"   Gusts: NA
Location:  56.96°N, 7.44°W
Report Text: EGPL 181320Z 26022KT 9999 VCSH FEW010 SCT030 07/03 Q0992
Loading
Personal Weather Stations






























Interactive Weather Map New forecast layout! Learn more

10-Day Weather Forecast

Advertisements
Track Severe Weather on mobile